Create Custom Reports and Graphics: Custom Report

Lindcove R.E.C.

Current Conditions

3/4/21 12:30 AM (-08:00)
Updated Every 15 Minutes
Temp 40.2 °F   0.8
Upper Temp 46.0 °F   0.8
Temp Inversion 5.8 °F   0.1
RH 75 %   9
Dew Pt 33.1 °F   2.5
Wind Dir W | 263 °
Wind Spd 0.9 mph   0.1
Wind Gust 2.4 mph   0.0
BatVolt 12.6 V   0.0

Today & Yesterday

Lindcove R.E.C.

3/4/21 12:30 AM (-08:00)
Updated Every 15 Minutes
Daily Max Temp 42.0 °F   0.2
Time of Max Temp 0001
Daily Min Temp 39.7 °F   0.9
Time of Min Temp 0027
Upper Max Temp 47.2 °F   1.6
Upper Min Temp 44.9 °F   0.6
Daily Max Wind 2.4 mph   0.2
Time of Max Wind 0021
Max Wind Dir NW | 315 °
Daily Rain 0.00 In
Yesterday's Max Temp 70.0 °F
Yesterday’s Min Temp 36.2 °F
Yesterday's Max Wind 11.2 mph
Yesterday's Rainfall 0.00 In
Monthly Rain 0.00 In
Seasonal Rainfall 3.52 In

Daily Meteorological Summary

Last 30 Days

Daily Data | America/Los_Angeles
as of 3/4/21 12:42 AM PST
Date Daily Max Temp (°F) Time of Max Temp Daily Min Temp (°F) Time of Min Temp Daily Rain (In) Seasonal Rainfall (In) Wind Spd (mph) Daily Max Wind (mph) Time of Max Wind Max Wind Dir (°) Dew Pt (°F) Max RH (%) Min RH (%) Upper Max Temp (°F) Max Upper Temp Time Upper Min Temp (°F) Min Upper Temp Time Max Temp Inversion (°F) Time of Max Temp Inversion Min Temp Inversion (°F) Time of Min Temp Inversion Max 1 Min Rain (In) Max 1 Min Rain Time Max 15 Min Rain (In) Max 15 Min Precip Time Max 60 Min Rain (In) Max 60 Min Rain Time Storm Total (In) Bat Volt Min Day (V)
3/3/21 70.0 1402 36.2 0323 0.00 3.52 1.9 11.2 1520 SW | 220 30.7 82 14 67.4 1359 40.6 0450 14.3 0337 -4.5 1317 - - - - - - - 12.4
3/2/21 77.1 1425 36.3 0420 0.00 3.52 1.7 11.4 1411 W | 265 25.8 84 7 72.6 1519 43.1 0415 15.2 0044 -6.5 1426 - - - - - - - 12.3
3/1/21 78.3 1532 32.8 0541 0.00 3.52 1.4 8.3 1346 WNW | 292 28.1 90 10 74.3 1550 38.5 0533 13.9 0322 -6.5 1327 - - - - - - - 12.3
2/28/21 72.4 1506 33.0 0543 0.00 3.52 1.5 12.7 0949 SW | 223 30.0 94 14 67.3 1511 37.9 0643 11.4 2232 -6.8 1507 - - - - - - - 12.4
2/27/21 66.5 1514 32.8 0535 0.00 3.52 1.9 12.7 1057 SW | 221 34.3 94 27 62.8 1511 36.3 0505 10.9 2137 -7.0 1337 - - - - - - - 12.3
2/26/21 70.8 1409 32.8 0626 0.00 3.52 1.3 11.6 1237 SW | 223 33.2 94 21 66.8 1448 37.6 0620 10.8 0548 -6.4 1319 - - - - - - - 12.3
2/25/21 69.2 1459 36.0 0550 0.00 3.52 1.7 13.4 1020 SSW | 203 29.6 91 14 64.9 1544 39.1 0519 9.7 2212 -6.9 1132 - - - - - - - 12.4
2/24/21 75.3 1445 38.4 0627 0.00 3.52 1.6 11.8 1549 NW | 305 38.6 95 26 71.6 1423 42.2 0617 10.3 0633 -6.7 1448 - - - - - - - 12.4
2/23/21 74.7 1523 37.0 0639 0.00 3.52 1.2 10.7 1457 WNW | 291 39.2 95 27 70.8 1314 41.5 0635 11.0 0228 -5.7 1400 - - - - - - - 12.4
2/22/21 74.6 1440 33.7 0622 0.00 3.52 1.4 10.1 1401 WNW | 291 36.0 95 21 70.5 1528 37.2 0538 10.6 1946 -6.2 1332 - - - - - - - 12.3
2/21/21 68.3 1524 32.3 0641 0.00 3.52 1.3 8.1 1208 SW | 223 35.4 95 26 65.1 1615 37.0 0642 8.8 0449 -6.8 1410 - - - - - - - 12.4
2/20/21 62.7 1318 37.4 2355 0.00 3.52 2.9 20.2 0912 WNW | 282 37.9 90 34 58.6 1422 41.7 2211 8.3 2010 -6.5 1322 - - - - - - - 12.4
2/19/21 72.6 1448 34.2 0652 0.00 3.52 1.0 7.5 1306 SW | 232 36.5 95 21 68.6 1444 38.5 0650 10.3 0533 -7.0 1337 - - - - - - - 12.4
2/18/21 68.3 1433 35.1 0639 0.00 3.52 1.2 9.9 1242 W | 281 35.6 95 19 65.6 1450 38.7 0550 11.6 1937 -5.7 1108 - - - - - - - 12.4
2/17/21 63.8 1420 34.1 0645 0.00 3.52 2.0 14.9 1025 SSW | 202 38.9 95 38 60.1 1519 37.6 0551 7.0 1936 -5.4 1418 - - - - - - - 12.4
2/16/21 64.0 1441 41.3 2359 0.00 3.52 1.8 14.2 1537 WNW | 298 43.9 94 45 59.3 1438 44.1 2359 8.2 2050 -6.6 1348 - - - - - - - 12.4
2/15/21 61.2 1304 40.4 0139 0.00 3.52 1.0 5.7 1307 WNW | 295 44.3 95 48 59.4 1152 42.3 0212 4.6 0036 -3.3 1308 - - - - - - - 12.4
2/14/21 62.7 1457 36.4 0524 0.00 3.52 1.3 11.4 1208 WSW | 245 41.1 96 47 58.6 1456 38.8 0634 6.9 2210 -5.4 1458 - - - - - - 0.18 12.4
2/13/21 59.8 1540 43.9 0628 0.18 3.52 1.4 14.2 1818 N | 1 45.2 95 58 58.2 1539 45.4 0643 3.8 2212 -3.8 1400 0.03 1827 0.14 1833 0.14 1918 0.56 12.4
2/12/21 62.3 1446 46.3 0705 0.55 3.34 2.2 16.2 0512 NW | 305 45.2 95 47 61.0 1445 47.9 0646 2.5 2252 -3.9 1143 0.05 0257 0.23 0310 0.46 0354 0.56 12.4
2/11/21 68.8 1136 42.4 0553 0.01 2.79 1.4 7.7 1148 SW | 231 45.8 95 40 64.8 1136 44.6 0546 9.9 0121 -4.6 1135 0.01 2111 0.01 2125 0.01 2210 - 12.4
2/10/21 71.3 1505 40.1 0408 0.00 2.78 1.5 12.5 1051 SW | 217 43.4 95 34 67.2 1523 43.2 0446 9.6 0418 -6.1 1423 - - - - - - - 12.4
2/9/21 68.1 1455 42.7 0001 0.00 2.78 1.1 6.1 1411 WSW | 250 42.6 93 35 66.6 1548 46.5 0019 8.8 0420 -4.6 1055 - - - - - - - 12.3
2/8/21 72.9 1354 34.7 0650 0.00 2.78 0.9 6.1 1125 SW | 214 40.1 96 29 68.5 1350 39.7 0615 9.3 0400 -5.9 1358 - - - - - - - 12.3
2/7/21 72.1 1527 35.2 0653 0.00 2.78 1.0 6.4 1126 SSW | 213 39.8 96 30 68.7 1519 40.0 0555 10.8 2149 -5.1 1410 - - - - - - - 12.3
2/6/21 70.8 1516 33.7 0653 0.00 2.78 1.0 7.9 1432 NW | 306 39.8 96 34 66.0 1534 38.1 0648 9.1 1832 -6.1 1516 - - - - - - - 12.4
2/5/21 66.2 1502 32.6 0703 0.00 2.78 1.1 8.3 1219 W | 275 38.7 96 40 62.4 1413 36.3 0653 8.7 0710 -5.8 1327 - - - - - - - 12.3
2/4/21 61.2 1522 33.5 0701 0.00 2.78 1.1 8.8 1137 WSW | 248 38.0 95 47 58.4 1609 36.1 0728 7.6 0427 -5.7 1348 - - - - - - - 12.4
2/3/21 59.5 1432 42.8 2359 0.00 2.78 1.6 7.5 1109 W | 264 45.2 94 52 57.6 1431 46.6 2336 6.3 1952 -3.3 1345 - - - - - - - 12.4
2/2/21 75.3 1507 37.9 0654 0.00 2.78 1.2 10.1 1816 SW | 223 40.9 96 26 70.3 1519 41.7 0635 9.8 0332 -6.0 1347 - - - - - - - 12.4
Max 78.3 - 46.3 - 0.55 - 2.9 20.2 - - 45.8 96 58 74.3 - 47.9 - 15.2 - -3.3 - 0.05 - 0.23 - 0.46 - 0.56 12.4
Avg - - - - - - 1.5 - - - 38.1 - - - - - - - - - - - - - - - - 0.43 -
Min 59.5 - 32.3 - 0.00 - 0.9 5.7 - - 25.8 82 7 57.6 - 36.1 - 2.5 - -7.0 - 0.01 - 0.01 - 0.01 - 0.18 12.3

Daily Bio-Meteorological Summary

Last 30 Days

Daily Data | America/Los_Angeles
as of 3/4/21 12:42 AM PST
Date Daily Max Temp (°F) Daily Min Temp (°F) Daily Rain (In) GDDs (DL) GDDs (Mx/Mn) Chilling <=45F (hrs) Chill Hrs 32-45F (hrs) Utah Chilling (Units) Chilling <=45F Seas (hrs) Chill Hrs 32-45 Seas (hrs) Utah Chilling Seas (Units) Chill Portions Hrs 70-85F (hrs) Hrs > 95F (hrs) Powdery Mildew Stress (pts) Bee Hrs Today (Hrs) Hrs <= 32F (hrs) Hrs <= 28F (hrs)
3/3/21 70.0 36.2 0.00 4.9 3.1 8.2 8.2 -1.5 1,288 1,218 639 60 0.00 0.00 0 7.5 0.0 0.0
3/2/21 77.1 36.3 0.00 8.6 6.7 8.9 8.9 3.5 1,280 1,210 642 60 6.53 0.00 0 9.3 0.0 0.0
3/1/21 78.3 32.8 0.00 8.8 5.5 9.6 9.6 2.5 1,271 1,201 639 60 6.35 0.00 0 8.8 0.0 0.0
2/28/21 72.4 33.0 0.00 5.9 2.7 12.3 12.3 -1.5 1,262 1,191 638 60 1.72 0.00 0 8.6 0.0 0.0
2/27/21 66.5 32.8 0.00 3.6 0.0 11.9 11.9 5.5 1,249 1,179 640 59 0.00 0.00 0 7.2 0.0 0.0
2/26/21 70.8 32.8 0.00 5.8 1.8 11.6 11.6 -1.0 1,237 1,167 636 59 0.10 0.00 0 8.4 0.0 0.0
2/25/21 69.2 36.0 0.00 5.0 2.6 12.3 12.3 5.5 1,226 1,155 638 59 0.00 0.00 0 8.2 0.0 0.0
2/24/21 75.3 38.4 0.00 7.5 6.8 8.2 8.2 3.5 1,214 1,143 633 59 3.71 0.00 0 8.7 0.0 0.0
2/23/21 74.7 37.0 0.00 7.2 5.8 8.9 8.9 4.0 1,205 1,135 630 59 3.30 0.00 0 8.7 0.0 0.0
2/22/21 74.6 33.7 0.00 6.5 4.1 11.2 11.2 4.5 1,196 1,126 628 59 3.06 0.00 0 7.9 0.0 0.0
2/21/21 68.3 32.3 0.00 4.3 0.3 12.6 12.6 5.5 1,185 1,115 624 59 0.00 0.00 0 7.6 0.0 0.0
2/20/21 62.7 37.4 0.00 2.7 0.1 4.4 4.4 6.0 1,173 1,102 620 59 0.00 0.00 0 7.1 0.0 0.0
2/19/21 72.6 34.2 0.00 6.0 3.4 8.4 8.4 -3.5 1,168 1,098 614 59 1.80 0.00 0 8.1 0.0 0.0
2/18/21 68.3 35.1 0.00 4.7 1.7 11.7 11.7 5.5 1,160 1,089 618 58 0.00 0.00 0 7.7 0.0 0.0
2/17/21 63.8 34.1 0.00 2.6 0.0 10.2 10.2 5.5 1,148 1,078 614 58 0.00 0.00 0 6.2 0.0 0.0
2/16/21 64.0 41.3 0.00 2.5 2.6 4.3 4.3 6.0 1,138 1,067 610 57 0.00 0.00 0 5.4 0.0 0.0
2/15/21 61.2 40.4 0.00 3.2 0.8 7.1 7.1 3.0 1,134 1,063 604 56 0.00 0.00 0 7.1 0.0 0.0
2/14/21 62.7 36.4 0.00 2.1 0.0 12.6 12.6 6.0 1,127 1,056 602 56 0.00 0.00 0 5.6 0.0 0.0
2/13/21 59.8 43.9 0.18 1.7 1.8 1.9 1.9 5.5 1,114 1,043 597 55 0.00 0.00 0 3.2 0.0 0.0
2/12/21 62.3 46.3 0.55 3.7 4.3 0.0 0.0 3.0 1,112 1,041 592 54 0.00 0.00 0 6.3 0.0 0.0
2/11/21 68.8 42.4 0.01 5.9 5.6 5.1 5.1 1.5 1,112 1,041 590 54 0.00 0.00 0 8.0 0.0 0.0
2/10/21 71.3 40.1 0.00 5.6 5.7 7.9 7.9 -2.5 1,107 1,036 589 53 0.81 0.00 0 7.7 0.0 0.0
2/9/21 68.1 42.7 0.00 4.8 5.4 5.2 5.2 4.5 1,099 1,029 592 53 0.00 0.00 0 7.2 0.0 0.0
2/8/21 72.9 34.7 0.00 5.2 3.8 11.1 11.1 5.0 1,094 1,023 589 52 0.50 0.00 0 7.6 0.0 0.0
2/7/21 72.1 35.2 0.00 5.2 3.7 12.3 12.3 5.5 1,083 1,012 585 52 1.15 0.00 0 7.3 0.0 0.0
2/6/21 70.8 33.7 0.00 4.8 2.3 11.9 11.9 5.5 1,071 1,000 580 52 0.22 0.00 0 7.2 0.0 0.0
2/5/21 66.2 32.6 0.00 3.4 0.0 13.1 13.1 6.5 1,059 988 576 52 0.00 0.00 0 7.0 0.0 0.0
2/4/21 61.2 33.5 0.00 1.7 0.0 14.8 14.8 6.5 1,046 975 570 51 0.00 0.00 0 4.3 0.0 0.0
2/3/21 59.5 42.8 0.00 1.6 1.2 0.3 0.3 6.5 1,031 960 565 51 0.00 0.00 0 3.7 0.0 0.0
2/2/21 75.3 37.9 0.00 7.0 6.6 8.4 8.4 4.0 1,030 960 560 50 3.25 0.00 0 7.9 0.0 0.0
Max 78.3 46.3 0.55 8.8 6.8 14.8 14.8 6.5 - - - 60 6.53 0.00 - 9.3 0.0 0.0
Avg - - - 4.8 2.9 8.9 8.9 3.7 - - - 56 1.08 0.00 - 7.2 0.0 0.0
Min 59.5 32.3 0.00 1.6 0.0 0.0 0.0 -3.5 - - - 50 0.00 0.00 - 3.2 0.0 0.0
Total - - - 142.5 88.4 266.4 266.4 110.5 - - - - 32.50 0.00 - 215.1 0.0 0.0

Climate Summary

Lindcove R.E.C.

Current Year | Showing 1/1/21 - 3/3/21
as of 3/4/21 12:42 AM PST
Temperature (°F) Precip (in) Days
Month Days Avg Max Avg Min Max Max Min Min Total Daily Min Temp < 28 Daily Min Temp < 32 Daily Max Temp > 90 Daily Max Temp > 100 Daily Rain > 0.01 Daily Rain > 0.1
Jan 2021 31 64.3 35.6 76.4 30 1.77 0 2 0 0 7 4
Feb 2021 28 68.4 37.3 79.3 32.3 0.74 0 0 0 0 2 2
Mar 2021 3 75.1 35.1 78.3 32.8 0 0 0 0 0 0 0
Total 62 - - - - 2.51 0 2 0 0 9 6
Average 20.7 69.3 36 - - 0.84 0 0.7 0 0 3 2
Maximum 31 75.1 37.3 79.3 - 1.77 0 2 0 0 7 4
Minimum 3 64.3 35.1 - 30 0 0 0 0 0 0 0

Climate Summary

Lindcove R.E.C.

Last Year | Showing 1/1/20 - 12/31/20
as of 3/4/21 12:42 AM PST
Temperature (°F) Precip (in) Days
Month Days Avg Max Avg Min Max Max Min Min Total Daily Min Temp < 28 Daily Min Temp < 32 Daily Max Temp > 90 Daily Max Temp > 100 Daily Rain > 0.01 Daily Rain > 0.1
Jan 2020 31 60.7 37.8 69.2 31.5 0.56 0 2 0 0 1 1
Feb 2020 29 72.1 36.3 86.4 26.9 0.34 2 7 0 0 1 1
Mar 2020 31 69.6 42.1 87.1 33.2 2.19 0 0 0 0 9 6
Apr 2020 30 77.4 49.8 95.7 37.2 2.4 0 0 4 0 7 6
May 2020 31 89.7 53.9 108.2 45.3 0.38 0 0 12 6 1 1
Jun 2020 30 95.8 59.8 107.5 47.1 0 0 0 20 13 0 0
Jul 2020 31 101.3 62.7 108.7 55.4 0.1 0 0 31 19 2 0
Aug 2020 31 101.6 65.7 111 58.9 0 0 0 31 22 0 0
Sep 2020 30 93.3 59.5 107.3 53.3 0 0 0 20 4 0 0
Oct 2020 31 87.9 50.4 98.4 37.1 0 0 0 12 0 0 0
Nov 2020 30 69.7 37.9 86.3 29 0.44 0 6 0 0 2 2
Dec 2020 31 63.6 33.5 77.9 28.5 0.57 0 15 0 0 6 2
Total 366 - - - - 6.98 2 30 130 64 29 19
Average 30.5 81.9 49.1 - - 0.58 0.2 2.5 10.8 5.3 2.4 1.6
Maximum 31 101.6 65.7 111 - 2.4 2 15 31 22 9 6
Minimum 29 60.7 33.5 - 26.9 0 0 0 0 0 0 0
Calm: 0.0%
Calm: 0.0%